Richfield Heights, Ohio
Current Conditions -  °F | °C
As of 9:51 AM on Saturday 25 Oct 2014 (Local Time) from KCLE Reporting Station
Broken Clouds Broken Clouds  
Wind Chill: 54°   Ceiling: 6500
Heat Index: 54°   Visibility: 9mi
Dew Point: 48°   Wind: 14mph
Humidity: 80%   Direction: 220°SW
Pressure: 29.89"   Gusts: NA
Location:  41.2393°N, 81.6428°W
Report Text: KCLE 251351Z 22012KT 9SM BKN065 BKN095 12/09 A2989 RMK AO2 SLP122 T01220089
Loading
Personal Weather Stations






























Interactive Weather Map
Tropical Storm Tracking
New forecast layout! Learn more

10-Day Weather Forecast

Advertisements
Track Severe Weather on mobile